createdAt,value
2022-09-02T00:01:02.315Z,5.07
2022-09-02T00:03:32.039Z,4.80
2022-09-02T00:05:58.867Z,4.50
2022-09-02T00:08:25.788Z,5.15
2022-09-02T00:10:52.582Z,4.90
2022-09-02T00:13:20.612Z,5.18
2022-09-02T00:15:48.939Z,4.80
2022-09-02T00:18:18.257Z,4.20
2022-09-02T00:20:48.183Z,5.75
2022-09-02T00:23:16.662Z,6.18
2022-09-02T00:25:44.842Z,4.32
2022-09-02T00:28:13.587Z,4.82
2022-09-02T00:30:41.280Z,4.93
2022-09-02T00:33:09.021Z,5.35
2022-09-02T00:35:36.884Z,4.75
2022-09-02T00:38:05.310Z,6.13
2022-09-02T00:40:33.917Z,5.07
2022-09-02T00:43:01.002Z,5.07
2022-09-02T00:45:27.752Z,4.80
2022-09-02T00:47:54.497Z,5.53
2022-09-02T00:50:26.813Z,5.00
2022-09-02T00:52:58.774Z,4.75
2022-09-02T00:55:32.875Z,4.78
2022-09-02T00:58:09.327Z,4.63
2022-09-02T01:00:42.378Z,5.20
2022-09-02T01:03:12.003Z,5.05
2022-09-02T01:05:44.839Z,5.63
2022-09-02T01:08:39.252Z,4.68
2022-09-02T01:11:06.864Z,5.13
2022-09-02T01:13:38.914Z,5.32
2022-09-02T01:16:16.042Z,4.93
2022-09-02T01:18:47.400Z,4.30
2022-09-02T01:21:14.704Z,5.15
2022-09-02T01:23:41.758Z,5.10
2022-09-02T01:26:09.454Z,4.88
2022-09-02T01:28:36.308Z,4.60
2022-09-02T01:31:04.406Z,4.63
2022-09-02T01:33:31.693Z,5.78
2022-09-02T01:35:59.614Z,5.20
2022-09-02T01:38:26.829Z,5.68
2022-09-02T01:40:53.856Z,4.60
2022-09-02T01:43:25.313Z,5.43
2022-09-02T01:45:54.681Z,5.28
2022-09-02T01:50:56.851Z,4.70
2022-09-02T01:55:52.404Z,4.72
2022-09-02T01:58:20.031Z,4.80
2022-09-02T02:00:47.573Z,4.57
2022-09-02T02:03:15.297Z,5.78
2022-09-02T02:05:42.227Z,4.68
2022-09-02T02:08:09.452Z,4.63
2022-09-02T02:10:36.411Z,5.20
2022-09-02T02:13:04.927Z,5.20
2022-09-02T02:15:36.599Z,4.97
2022-09-02T02:18:04.277Z,5.03
2022-09-02T02:20:32.194Z,4.40
2022-09-02T02:22:59.100Z,4.97
2022-09-02T02:25:25.977Z,6.10
2022-09-02T02:27:54.484Z,4.88
2022-09-02T02:30:23.729Z,5.20
2022-09-02T02:32:51.143Z,4.90
2022-09-02T02:35:20.091Z,4.80
2022-09-02T02:37:50.150Z,5.03
2022-09-02T02:40:20.242Z,5.55
2022-09-02T02:42:49.075Z,5.68
2022-09-02T02:45:16.064Z,4.68
2022-09-02T02:47:46.092Z,5.70
2022-09-02T02:50:16.649Z,5.03
2022-09-02T02:52:43.886Z,4.97
2022-09-02T02:55:12.532Z,4.47
2022-09-02T02:57:40.810Z,4.80
2022-09-02T03:00:14.751Z,4.93
2022-09-02T03:02:42.307Z,5.38
2022-09-02T03:05:11.457Z,5.50
2022-09-02T03:07:38.254Z,5.00
2022-09-02T03:10:08.260Z,5.22
2022-09-02T03:12:39.055Z,5.93
2022-09-02T03:15:08.269Z,5.50
2022-09-02T03:17:35.605Z,5.32
2022-09-02T03:20:03.523Z,6.07
2022-09-02T03:22:35.845Z,4.97
2022-09-02T03:25:08.002Z,4.75
2022-09-02T03:27:36.828Z,5.10
2022-09-02T03:30:06.031Z,4.88
2022-09-02T03:32:33.092Z,4.70
2022-09-02T03:35:01.879Z,4.22
2022-09-02T03:37:29.604Z,4.95
2022-09-02T03:39:56.643Z,5.00
2022-09-02T03:42:23.426Z,5.15
2022-09-02T03:44:51.552Z,5.07
2022-09-02T03:47:20.817Z,5.90
2022-09-02T03:49:51.650Z,4.70
2022-09-02T03:52:18.513Z,4.82
2022-09-02T03:54:45.819Z,5.00
2022-09-02T03:57:12.776Z,4.72
2022-09-02T03:59:40.001Z,4.40
2022-09-02T04:02:07.498Z,4.53
2022-09-02T04:04:35.098Z,4.57
2022-09-02T04:07:01.874Z,5.07
2022-09-02T04:09:28.643Z,4.93
2022-09-02T04:11:55.523Z,5.05
2022-09-02T04:14:22.447Z,4.55
2022-09-02T04:16:49.682Z,5.60
2022-09-02T04:19:17.023Z,5.43
2022-09-02T04:21:44.066Z,4.53
2022-09-02T04:24:12.853Z,4.30
2022-09-02T04:26:44.854Z,4.43
2022-09-02T04:29:13.784Z,4.18
2022-09-02T04:31:42.423Z,4.47
2022-09-02T04:34:10.641Z,5.18
2022-09-02T04:36:37.742Z,4.07
2022-09-02T04:39:09.318Z,4.28
2022-09-02T04:41:37.578Z,4.15
2022-09-02T04:44:08.139Z,4.05
2022-09-02T04:46:39.170Z,4.50
2022-09-02T04:49:09.809Z,3.90
2022-09-02T04:51:39.375Z,4.25
2022-09-02T04:54:08.676Z,4.13
2022-09-02T04:56:38.458Z,4.07
2022-09-02T04:59:07.205Z,3.95
2022-09-02T05:01:36.660Z,3.90
2022-09-02T05:04:14.445Z,4.07
2022-09-02T05:06:47.003Z,4.45
2022-09-02T05:09:18.740Z,3.80
2022-09-02T05:11:51.974Z,4.43
2022-09-02T05:16:53.914Z,4.38
2022-09-02T05:19:24.212Z,4.35
2022-09-02T05:21:55.157Z,4.10
2022-09-02T05:24:35.052Z,4.63
2022-09-02T05:29:35.846Z,4.03
2022-09-02T05:32:04.165Z,4.30
2022-09-02T05:34:33.342Z,4.35
2022-09-02T05:37:03.346Z,4.90
2022-09-02T05:39:32.084Z,4.38
2022-09-02T05:42:00.508Z,4.25
2022-09-02T05:44:29.139Z,3.92
2022-09-02T05:46:57.330Z,4.10
2022-09-02T05:49:24.273Z,4.22
2022-09-02T05:51:59.365Z,3.78
2022-09-02T05:54:33.813Z,4.20
2022-09-02T05:57:09.166Z,3.90
2022-09-02T05:59:42.085Z,4.07
2022-09-02T06:02:13.039Z,3.92
2022-09-02T06:04:41.400Z,3.67
2022-09-02T06:07:09.885Z,3.63
2022-09-02T06:09:41.123Z,3.50
2022-09-02T06:12:08.743Z,3.90
2022-09-02T06:14:38.014Z,4.30
2022-09-02T06:17:06.386Z,3.95
2022-09-02T06:19:42.856Z,4.22
2022-09-02T06:22:11.537Z,4.32
2022-09-02T06:24:39.135Z,4.13
2022-09-02T06:29:40.255Z,4.00
2022-09-02T06:32:09.517Z,4.38
2022-09-02T06:34:37.073Z,4.00
2022-09-02T06:37:04.034Z,3.72
2022-09-02T06:39:32.375Z,3.50
2022-09-02T06:41:59.629Z,4.20
2022-09-02T06:44:29.781Z,3.90
2022-09-02T06:47:00.735Z,3.22
2022-09-02T06:49:28.720Z,3.90
2022-09-02T06:51:58.211Z,3.92
2022-09-02T06:54:30.304Z,3.58
2022-09-02T06:57:06.734Z,3.53
2022-09-02T06:59:36.440Z,3.30
2022-09-02T07:02:04.030Z,3.45
2022-09-02T07:04:53.125Z,3.65
2022-09-02T07:07:22.893Z,3.35
2022-09-02T07:09:59.710Z,3.33
2022-09-02T07:12:27.323Z,2.92
2022-09-02T07:15:02.155Z,2.90
2022-09-02T07:17:34.841Z,2.78
2022-09-02T07:20:05.896Z,2.63
2022-09-02T07:22:39.412Z,3.03
2022-09-02T07:25:09.636Z,2.15
2022-09-02T07:27:37.737Z,2.20
2022-09-02T07:30:06.777Z,2.35
2022-09-02T07:35:08.046Z,2.00
2022-09-02T07:37:36.310Z,2.05
2022-09-02T07:40:08.244Z,2.33
2022-09-02T07:42:35.114Z,2.03
2022-09-02T07:45:02.493Z,2.13
2022-09-02T07:47:29.561Z,2.15
2022-09-02T07:52:46.199Z,2.22
2022-09-02T07:55:15.358Z,1.65
2022-09-02T07:57:44.354Z,2.00
2022-09-02T08:00:13.641Z,2.03
2022-09-02T08:02:47.528Z,2.28
2022-09-02T08:05:21.238Z,2.03
2022-09-02T08:07:48.081Z,1.75
2022-09-02T08:10:16.735Z,1.67
2022-09-02T08:12:44.221Z,1.40
2022-09-02T08:15:12.113Z,1.42
2022-09-02T08:17:43.139Z,1.40
2022-09-02T08:20:14.678Z,1.80
2022-09-02T08:22:41.716Z,1.88
2022-09-02T08:25:09.238Z,1.50
2022-09-02T08:27:36.638Z,1.67
2022-09-02T08:30:05.333Z,1.42
2022-09-02T08:32:32.824Z,1.42
2022-09-02T08:35:02.772Z,1.33
2022-09-02T08:37:33.599Z,2.05
2022-09-02T08:40:03.624Z,1.52
2022-09-02T08:42:44.043Z,1.58
2022-09-02T08:45:32.419Z,1.38
2022-09-02T08:48:08.193Z,1.48
2022-09-02T08:50:36.567Z,1.40
2022-09-02T08:53:22.535Z,1.50
2022-09-02T08:55:55.083Z,1.30
2022-09-02T08:58:28.802Z,1.15
2022-09-02T09:01:10.891Z,1.45
2022-09-02T09:04:16.337Z,1.48
2022-09-02T09:06:46.071Z,1.65
2022-09-02T09:09:43.898Z,1.50
2022-09-02T09:12:22.297Z,1.48
2022-09-02T09:15:20.929Z,1.25
2022-09-02T09:17:59.975Z,1.50
2022-09-02T09:20:29.806Z,1.10
2022-09-02T09:22:59.786Z,1.55
2022-09-02T09:25:32.239Z,1.50
2022-09-02T09:28:00.726Z,1.50
2022-09-02T09:30:29.821Z,1.70
2022-09-02T09:33:00.506Z,1.90
2022-09-02T09:35:28.983Z,1.70
2022-09-02T09:37:56.549Z,1.40
2022-09-02T09:40:30.828Z,1.60
2022-09-02T09:43:13.169Z,1.52
2022-09-02T09:45:51.730Z,1.58
2022-09-02T09:48:23.535Z,1.70
2022-09-02T09:51:12.803Z,1.63
2022-09-02T09:53:40.080Z,1.98
2022-09-02T09:56:15.939Z,1.42
2022-09-02T09:58:45.842Z,1.50
2022-09-02T10:01:24.470Z,1.40
2022-09-02T10:04:32.198Z,1.20
2022-09-02T10:06:55.703Z,1.50
2022-09-02T10:09:31.018Z,1.35
2022-09-02T10:12:02.613Z,1.23
2022-09-02T10:14:46.313Z,1.75
2022-09-02T10:17:16.211Z,1.38
2022-09-02T10:20:08.102Z,1.48
2022-09-02T10:22:58.685Z,1.45
2022-09-02T10:25:56.658Z,1.38
2022-09-02T10:29:03.925Z,1.70
2022-09-02T10:32:14.208Z,1.35
2022-09-02T10:34:59.809Z,1.70
2022-09-02T10:37:46.991Z,1.58
2022-09-02T10:40:37.415Z,1.60
2022-09-02T10:43:24.456Z,1.80
2022-09-02T10:45:56.136Z,1.50
2022-09-02T10:49:06.785Z,1.23
2022-09-02T10:51:37.338Z,1.40
2022-09-02T10:54:40.037Z,1.33
2022-09-02T10:57:44.957Z,1.60
2022-09-02T11:00:20.325Z,2.00
2022-09-02T11:02:55.481Z,1.20
2022-09-02T11:05:45.372Z,1.50
2022-09-02T11:08:19.661Z,1.33
2022-09-02T11:11:01.067Z,1.80
2022-09-02T11:13:37.605Z,1.30
2022-09-02T11:16:20.879Z,1.20
2022-09-02T11:19:22.339Z,1.42
2022-09-02T11:22:23.098Z,1.20
2022-09-02T11:25:06.999Z,1.77
2022-09-02T11:27:45.343Z,1.30
2022-09-02T11:30:21.485Z,1.40
2022-09-02T11:33:17.712Z,1.88
2022-09-02T11:35:45.176Z,1.20
2022-09-02T11:38:42.710Z,1.20
2022-09-02T11:41:35.022Z,1.20
2022-09-02T11:44:31.310Z,1.13
2022-09-02T11:47:26.223Z,1.58
2022-09-02T11:50:23.966Z,1.38
2022-09-02T11:53:20.613Z,1.20
2022-09-02T11:55:58.331Z,1.35
2022-09-02T11:58:33.351Z,1.35
2022-09-02T12:01:15.425Z,1.50
2022-09-02T12:04:27.204Z,1.23
2022-09-02T12:06:38.018Z,1.55
2022-09-02T12:09:08.126Z,2.70
2022-09-02T12:11:43.629Z,1.10
2022-09-02T12:14:25.465Z,1.63
2022-09-02T12:17:04.264Z,1.35
2022-09-02T12:19:41.942Z,1.25
2022-09-02T12:22:15.947Z,1.75
2022-09-02T12:24:54.479Z,1.33
2022-09-02T12:27:24.021Z,1.33
2022-09-02T12:29:52.371Z,1.42
2022-09-02T12:32:45.297Z,1.85
2022-09-02T12:35:31.388Z,1.77
2022-09-02T12:38:21.828Z,1.50
2022-09-02T12:40:54.885Z,1.20
2022-09-02T12:43:32.659Z,1.10
2022-09-02T12:46:28.692Z,1.17
2022-09-02T12:49:25.261Z,1.20
2022-09-02T12:52:04.021Z,1.10
2022-09-02T12:54:50.176Z,1.20
2022-09-02T12:57:18.607Z,1.45
2022-09-02T12:59:47.461Z,1.08
2022-09-02T13:02:14.141Z,1.40
2022-09-02T13:05:08.322Z,1.33
2022-09-02T13:08:06.748Z,1.50
2022-09-02T13:11:09.274Z,1.27
2022-09-02T13:14:14.923Z,1.35
2022-09-02T13:17:35.445Z,1.40
2022-09-02T13:20:39.329Z,1.23
2022-09-02T13:23:36.334Z,1.33
2022-09-02T13:26:13.144Z,1.10
2022-09-02T13:28:48.781Z,1.30
2022-09-02T13:31:23.471Z,1.38
2022-09-02T13:34:10.176Z,1.20
2022-09-02T13:36:42.593Z,1.50
2022-09-02T13:39:18.954Z,1.02
2022-09-02T13:41:47.070Z,1.35
2022-09-02T13:44:22.309Z,1.40
2022-09-02T13:47:02.365Z,1.27
2022-09-02T13:49:38.199Z,1.20
2022-09-02T13:52:11.734Z,1.10
2022-09-02T13:54:59.899Z,2.05
2022-09-02T13:57:29.514Z,1.75
2022-09-02T13:59:58.258Z,1.20
2022-09-02T14:02:35.726Z,1.27
2022-09-02T14:05:13.809Z,1.10
2022-09-02T14:07:47.217Z,1.45
2022-09-02T14:10:19.635Z,1.27
2022-09-02T14:12:47.446Z,1.73
2022-09-02T14:15:16.639Z,1.20
2022-09-02T14:17:43.796Z,1.40
2022-09-02T14:20:14.766Z,1.27
2022-09-02T14:22:42.258Z,1.27
2022-09-02T14:25:14.456Z,1.27
2022-09-02T14:27:50.196Z,1.17
2022-09-02T14:30:34.594Z,1.25
2022-09-02T14:33:24.415Z,1.20
2022-09-02T14:36:01.542Z,1.40
2022-09-02T14:38:33.380Z,1.55
2022-09-02T14:41:03.008Z,1.23
2022-09-02T14:43:41.462Z,1.30
2022-09-02T14:46:17.793Z,1.40
2022-09-02T14:48:44.583Z,0.95
2022-09-02T14:51:11.417Z,1.15
2022-09-02T14:53:43.797Z,1.40
2022-09-02T14:56:10.539Z,1.00
2022-09-02T14:58:37.234Z,1.30
2022-09-02T15:01:04.806Z,1.40
2022-09-02T15:03:36.497Z,1.40
2022-09-02T15:06:03.403Z,1.40
2022-09-02T15:08:30.169Z,1.27
2022-09-02T15:10:59.425Z,1.40
2022-09-02T15:13:33.811Z,1.08
2022-09-02T15:16:01.784Z,1.40
2022-09-02T15:18:28.811Z,1.20
2022-09-02T15:20:55.683Z,1.30
2022-09-02T15:23:22.621Z,1.30
2022-09-02T15:25:49.669Z,1.40
2022-09-02T15:28:16.526Z,1.30
2022-09-02T15:30:43.315Z,1.20
2022-09-02T15:33:17.632Z,1.25
2022-09-02T15:35:51.766Z,1.20
2022-09-02T15:38:18.735Z,1.20
2022-09-02T15:40:45.587Z,1.65
2022-09-02T15:43:13.012Z,1.00
2022-09-02T15:45:48.851Z,1.48
2022-09-02T15:48:15.940Z,1.52
2022-09-02T15:50:42.972Z,1.30
2022-09-02T15:53:14.893Z,1.10
2022-09-02T15:55:41.883Z,1.02
2022-09-02T15:58:09.744Z,1.10
2022-09-02T16:00:36.618Z,1.17
2022-09-02T16:03:04.146Z,1.08
2022-09-02T16:05:32.337Z,1.13
2022-09-02T16:07:59.664Z,1.20
2022-09-02T16:10:26.419Z,1.38
2022-09-02T16:12:53.125Z,1.23
2022-09-02T16:15:20.830Z,1.10
2022-09-02T16:17:47.893Z,1.35
2022-09-02T16:20:19.160Z,1.00
2022-09-02T16:22:48.659Z,1.40
2022-09-02T16:25:15.596Z,1.40
2022-09-02T16:27:55.849Z,1.30
2022-09-02T16:30:23.835Z,1.23
2022-09-02T16:32:51.700Z,1.10
2022-09-02T16:35:18.702Z,1.30
2022-09-02T16:37:45.619Z,0.93
2022-09-02T16:40:13.293Z,1.17
2022-09-02T16:42:40.076Z,1.15
2022-09-02T16:45:07.379Z,1.23
2022-09-02T16:47:34.262Z,1.10
2022-09-02T16:50:01.088Z,1.45
2022-09-02T16:52:27.775Z,1.20
2022-09-02T16:54:54.481Z,1.50
2022-09-02T16:57:21.234Z,1.52
2022-09-02T16:59:47.996Z,1.50
2022-09-02T17:02:14.795Z,1.30
2022-09-02T17:04:41.685Z,1.52
2022-09-02T17:07:09.459Z,1.65
2022-09-02T17:09:36.139Z,1.52
2022-09-02T17:12:03.153Z,1.33
2022-09-02T17:14:30.321Z,1.70
2022-09-02T17:16:57.182Z,1.13
2022-09-02T17:19:27.347Z,1.35
2022-09-02T17:21:58.226Z,3.88
2022-09-02T17:24:30.610Z,3.30
2022-09-02T17:26:57.706Z,3.42
2022-09-02T17:29:48.526Z,1.98
2022-09-02T17:32:15.968Z,2.00
2022-09-02T17:34:42.723Z,1.40
2022-09-02T17:37:09.485Z,1.75
2022-09-02T17:39:36.526Z,2.25
2022-09-02T17:42:05.089Z,1.77
2022-09-02T17:44:35.909Z,2.05
2022-09-02T17:47:08.532Z,2.13
2022-09-02T17:49:37.152Z,2.00
2022-09-02T17:52:07.298Z,1.70
2022-09-02T17:54:38.967Z,2.00
2022-09-02T17:57:40.257Z,2.03
2022-09-02T18:00:17.017Z,1.95
2022-09-02T18:03:14.612Z,2.40
2022-09-02T18:06:08.929Z,1.80
2022-09-02T18:08:56.291Z,1.83
2022-09-02T18:11:23.542Z,2.13
2022-09-02T18:14:08.944Z,1.90
2022-09-02T18:16:53.935Z,2.17
2022-09-02T18:19:53.455Z,2.45
2022-09-02T18:22:48.994Z,2.30
2022-09-02T18:25:44.104Z,1.95
2022-09-02T18:28:43.251Z,2.15
2022-09-02T18:31:15.599Z,1.70
2022-09-02T18:34:11.782Z,2.20
2022-09-02T18:36:55.524Z,1.88
2022-09-02T18:39:38.813Z,2.80
2022-09-02T18:42:25.907Z,2.63
2022-09-02T18:45:21.972Z,2.55
2022-09-02T18:47:53.659Z,1.80
2022-09-02T18:50:49.069Z,2.10
2022-09-02T18:53:21.803Z,2.63
2022-09-02T18:55:50.705Z,2.60
2022-09-02T18:58:42.134Z,2.40
2022-09-02T19:01:30.411Z,2.85
2022-09-02T19:04:01.188Z,2.65
2022-09-02T19:06:36.196Z,2.15
2022-09-02T19:09:13.573Z,2.20
2022-09-02T19:11:41.230Z,2.83
2022-09-02T19:14:28.006Z,2.80
2022-09-02T19:16:57.708Z,2.60
2022-09-02T19:19:27.278Z,3.15
2022-09-02T19:22:04.816Z,2.40
2022-09-02T19:24:42.794Z,2.22
2022-09-02T19:27:17.447Z,2.47
2022-09-02T19:29:51.181Z,2.55
2022-09-02T19:32:22.240Z,2.80
2022-09-02T19:34:49.193Z,3.42
2022-09-02T19:37:17.039Z,2.20
2022-09-02T19:39:43.816Z,2.78
2022-09-02T19:42:10.919Z,2.50
2022-09-02T19:44:38.919Z,2.38
2022-09-02T19:48:02.684Z,2.72
2022-09-02T19:49:52.745Z,2.70
2022-09-02T19:52:22.829Z,2.70
2022-09-02T19:54:49.691Z,2.50
2022-09-02T19:57:16.805Z,2.55
2022-09-02T19:59:43.788Z,2.83
2022-09-02T20:02:10.633Z,2.70
2022-09-02T20:04:37.544Z,3.05
2022-09-02T20:07:04.717Z,2.45
2022-09-02T20:09:31.469Z,2.65
2022-09-02T20:11:58.697Z,2.65
2022-09-02T20:14:26.404Z,2.78
2022-09-02T20:16:57.733Z,2.55
2022-09-02T20:21:53.641Z,3.30
2022-09-02T20:24:31.565Z,2.55
2022-09-02T20:26:59.001Z,3.10
2022-09-02T20:29:42.191Z,2.25
2022-09-02T20:32:50.290Z,2.60
2022-09-02T20:35:33.902Z,2.28
2022-09-02T20:38:29.012Z,2.38
2022-09-02T20:41:17.858Z,2.17
2022-09-02T20:44:13.192Z,2.78
2022-09-02T20:46:54.870Z,2.38
2022-09-02T20:49:38.439Z,2.05
2022-09-02T20:52:14.879Z,1.95
2022-09-02T20:55:08.077Z,1.95
2022-09-02T20:58:16.031Z,1.80
2022-09-02T21:01:06.792Z,1.67
2022-09-02T21:03:49.310Z,1.70
2022-09-02T21:06:18.838Z,1.73
2022-09-02T21:09:33.088Z,1.83
2022-09-02T21:12:08.339Z,1.70
2022-09-02T21:14:46.990Z,1.45
2022-09-02T21:17:21.564Z,1.75
2022-09-02T21:20:03.090Z,1.80
2022-09-02T21:25:35.319Z,1.80
2022-09-02T21:28:17.180Z,1.50
2022-09-02T21:30:54.771Z,1.73
2022-09-02T21:33:25.246Z,1.63
2022-09-02T21:35:53.829Z,1.80
2022-09-02T21:38:23.650Z,2.00
2022-09-02T21:41:24.790Z,2.10
2022-09-02T21:43:57.575Z,1.80
2022-09-02T21:46:35.850Z,1.70
2022-09-02T21:49:21.174Z,1.33
2022-09-02T21:52:06.105Z,1.70
2022-09-02T21:54:41.471Z,1.83
2022-09-02T21:57:23.388Z,1.75
2022-09-02T22:00:16.929Z,1.75
2022-09-02T22:03:13.025Z,2.00
2022-09-02T22:06:12.945Z,1.65
2022-09-02T22:08:50.862Z,1.90
2022-09-02T22:11:39.660Z,1.70
2022-09-02T22:14:14.481Z,2.15
2022-09-02T22:17:00.480Z,2.10
2022-09-02T22:19:33.246Z,1.80
2022-09-02T22:22:14.140Z,1.85
2022-09-02T22:24:40.990Z,1.77
2022-09-02T22:27:23.221Z,1.83
2022-09-02T22:30:06.934Z,1.98
2022-09-02T22:32:41.005Z,1.70
2022-09-02T22:35:24.974Z,1.70
2022-09-02T22:38:01.759Z,1.80
2022-09-02T22:40:36.026Z,2.35
2022-09-02T22:43:09.217Z,1.90
2022-09-02T22:46:03.432Z,1.90
2022-09-02T22:48:58.979Z,1.85
2022-09-02T22:51:56.348Z,1.83
2022-09-02T22:54:25.090Z,2.00
2022-09-02T22:57:07.954Z,2.45
2022-09-02T22:59:49.710Z,2.17
2022-09-02T23:02:19.437Z,1.80
2022-09-02T23:05:03.747Z,2.28
2022-09-02T23:07:31.570Z,1.80
2022-09-02T23:10:00.763Z,1.70
2022-09-02T23:12:43.439Z,1.73
2022-09-02T23:15:32.409Z,1.70
2022-09-02T23:18:21.616Z,1.65
2022-09-02T23:21:19.377Z,1.60
2022-09-02T23:24:09.248Z,1.73
2022-09-02T23:26:53.615Z,2.17
2022-09-02T23:29:28.607Z,2.85
2022-09-02T23:32:04.276Z,2.00
2022-09-02T23:35:36.098Z,2.10
2022-09-02T23:38:14.138Z,2.17
2022-09-02T23:40:58.387Z,2.20
2022-09-02T23:43:25.451Z,1.90
2022-09-02T23:45:55.913Z,2.38
2022-09-02T23:48:50.348Z,2.28
2022-09-02T23:51:23.037Z,2.25
2022-09-02T23:54:21.793Z,2.03
2022-09-02T23:57:38.735Z,1.95
